< < Back
Terminal Aerodrome Forecast


Current Version              Previous Versions:   1  2  3  4  5  6  7  8  9  

Terminal Aerodrome Forecast

444
FTUS42 KFFC 012300
TAFPDK
TAF
KPDK 012324Z 0200/0224 VRB03KT P6SM SKC
     FM021500 17004KT P6SM SCT045=

Latest METAR

240
SAUS70 KWBC 020400 RRD
MTRPDK
METAR KPDK 020353Z AUTO 00000KT 10SM CLR 18/15 A3004 RMK AO2 SLP159
T01780150 $


USA.gov is the U.S. government's official web portal to all federal, state and local government web resources and services.